sensor_id;sensor_type;location;lat;lon;timestamp;P1;durP1;ratioP1;P2;durP2;ratioP2
29576;SDS011;16509;53.862;10.672;2023-01-10T00:01:59;41.88;;;16.05;;
29576;SDS011;16509;53.862;10.672;2023-01-10T00:04:24;41.97;;;16.40;;
29576;SDS011;16509;53.862;10.672;2023-01-10T00:06:50;40.88;;;15.10;;
29576;SDS011;16509;53.862;10.672;2023-01-10T00:09:16;38.08;;;14.73;;
29576;SDS011;16509;53.862;10.672;2023-01-10T00:11:42;39.15;;;13.05;;
29576;SDS011;16509;53.862;10.672;2023-01-10T00:14:26;37.78;;;14.73;;
29576;SDS011;16509;53.862;10.672;2023-01-10T00:16:53;49.22;;;13.90;;
29576;SDS011;16509;53.862;10.672;2023-01-10T00:19:18;33.20;;;14.45;;
29576;SDS011;16509;53.862;10.672;2023-01-10T00:21:44;35.03;;;13.23;;
29576;SDS011;16509;53.862;10.672;2023-01-10T00:24:10;39.22;;;13.55;;
29576;SDS011;16509;53.862;10.672;2023-01-10T00:26:47;41.28;;;15.13;;
29576;SDS011;16509;53.862;10.672;2023-01-10T00:29:17;45.53;;;15.07;;
29576;SDS011;16509;53.862;10.672;2023-01-10T00:31:48;39.53;;;15.07;;
29576;SDS011;16509;53.862;10.672;2023-01-10T00:34:14;43.58;;;14.57;;
29576;SDS011;16509;53.862;10.672;2023-01-10T00:36:40;27.63;;;13.00;;
29576;SDS011;16509;53.862;10.672;2023-01-10T00:39:06;36.08;;;13.23;;
29576;SDS011;16509;53.862;10.672;2023-01-10T00:41:34;33.25;;;12.55;;
29576;SDS011;16509;53.862;10.672;2023-01-10T00:44:18;36.30;;;11.57;;
29576;SDS011;16509;53.862;10.672;2023-01-10T00:46:44;43.60;;;13.63;;
29576;SDS011;16509;53.862;10.672;2023-01-10T00:49:10;30.08;;;11.52;;
29576;SDS011;16509;53.862;10.672;2023-01-10T00:51:38;37.10;;;11.63;;
29576;SDS011;16509;53.862;10.672;2023-01-10T00:54:03;28.48;;;11.32;;
29576;SDS011;16509;53.862;10.672;2023-01-10T00:56:29;30.13;;;11.50;;
29576;SDS011;16509;53.862;10.672;2023-01-10T00:58:55;29.65;;;12.25;;
29576;SDS011;16509;53.862;10.672;2023-01-10T01:01:20;23.15;;;11.45;;
29576;SDS011;16509;53.862;10.672;2023-01-10T01:03:46;32.70;;;11.60;;
29576;SDS011;16509;53.862;10.672;2023-01-10T01:06:11;31.88;;;11.85;;
29576;SDS011;16509;53.862;10.672;2023-01-10T01:08:37;35.10;;;11.18;;
29576;SDS011;16509;53.862;10.672;2023-01-10T01:11:03;31.02;;;11.65;;
29576;SDS011;16509;53.862;10.672;2023-01-10T01:13:28;30.08;;;11.23;;
29576;SDS011;16509;53.862;10.672;2023-01-10T01:15:58;36.03;;;12.32;;
29576;SDS011;16509;53.862;10.672;2023-01-10T01:18:24;23.40;;;11.45;;
29576;SDS011;16509;53.862;10.672;2023-01-10T01:20:53;29.25;;;11.15;;
29576;SDS011;16509;53.862;10.672;2023-01-10T01:23:20;28.73;;;11.07;;
29576;SDS011;16509;53.862;10.672;2023-01-10T01:25:48;31.73;;;11.48;;
29576;SDS011;16509;53.862;10.672;2023-01-10T01:28:15;28.80;;;10.88;;
29576;SDS011;16509;53.862;10.672;2023-01-10T01:30:41;29.23;;;11.27;;
29576;SDS011;16509;53.862;10.672;2023-01-10T01:33:06;24.55;;;10.88;;
29576;SDS011;16509;53.862;10.672;2023-01-10T01:35:32;29.55;;;11.02;;
29576;SDS011;16509;53.862;10.672;2023-01-10T01:37:58;34.97;;;11.13;;
29576;SDS011;16509;53.862;10.672;2023-01-10T01:40:23;30.05;;;10.50;;
29576;SDS011;16509;53.862;10.672;2023-01-10T01:42:49;29.30;;;11.02;;
29576;SDS011;16509;53.862;10.672;2023-01-10T01:53:13;20.95;;;9.38;;
29576;SDS011;16509;53.862;10.672;2023-01-10T01:56:02;36.13;;;10.88;;
29576;SDS011;16509;53.862;10.672;2023-01-10T01:58:43;38.05;;;10.10;;
29576;SDS011;16509;53.862;10.672;2023-01-10T02:01:15;30.65;;;9.18;;
29576;SDS011;16509;53.862;10.672;2023-01-10T02:03:42;24.88;;;8.38;;
29576;SDS011;16509;53.862;10.672;2023-01-10T02:06:12;35.58;;;9.55;;
29576;SDS011;16509;53.862;10.672;2023-01-10T02:08:40;19.25;;;7.38;;
29576;SDS011;16509;53.862;10.672;2023-01-10T02:11:14;25.10;;;8.20;;
29576;SDS011;16509;53.862;10.672;2023-01-10T02:13:40;19.35;;;7.75;;
29576;SDS011;16509;53.862;10.672;2023-01-10T02:16:08;24.02;;;8.30;;
29576;SDS011;16509;53.862;10.672;2023-01-10T02:18:34;23.30;;;7.20;;
29576;SDS011;16509;53.862;10.672;2023-01-10T02:21:28;26.70;;;7.18;;
29576;SDS011;16509;53.862;10.672;2023-01-10T02:26:49;26.67;;;8.43;;
29576;SDS011;16509;53.862;10.672;2023-01-10T02:34:56;19.80;;;7.60;;
29576;SDS011;16509;53.862;10.672;2023-01-10T02:37:50;21.95;;;6.53;;
29576;SDS011;16509;53.862;10.672;2023-01-10T02:41:00;21.48;;;5.90;;
29576;SDS011;16509;53.862;10.672;2023-01-10T02:43:40;26.10;;;8.27;;
29576;SDS011;16509;53.862;10.672;2023-01-10T02:46:19;24.90;;;7.22;;
29576;SDS011;16509;53.862;10.672;2023-01-10T02:48:52;16.00;;;5.40;;
29576;SDS011;16509;53.862;10.672;2023-01-10T02:51:25;12.35;;;6.07;;
29576;SDS011;16509;53.862;10.672;2023-01-10T02:56:32;25.50;;;7.07;;
29576;SDS011;16509;53.862;10.672;2023-01-10T03:08:05;17.38;;;5.75;;
29576;SDS011;16509;53.862;10.672;2023-01-10T03:10:48;24.48;;;6.50;;
29576;SDS011;16509;53.862;10.672;2023-01-10T03:15:48;15.70;;;6.45;;
29576;SDS011;16509;53.862;10.672;2023-01-10T03:18:17;20.05;;;5.72;;
29576;SDS011;16509;53.862;10.672;2023-01-10T03:20:48;17.77;;;6.20;;
29576;SDS011;16509;53.862;10.672;2023-01-10T03:23:16;24.63;;;6.70;;
29576;SDS011;16509;53.862;10.672;2023-01-10T03:25:45;17.48;;;6.63;;
29576;SDS011;16509;53.862;10.672;2023-01-10T03:28:15;20.77;;;6.60;;
29576;SDS011;16509;53.862;10.672;2023-01-10T03:30:53;22.42;;;6.88;;
29576;SDS011;16509;53.862;10.672;2023-01-10T03:33:24;29.65;;;7.95;;
29576;SDS011;16509;53.862;10.672;2023-01-10T03:38:55;16.73;;;6.82;;
29576;SDS011;16509;53.862;10.672;2023-01-10T03:41:37;23.35;;;6.25;;
29576;SDS011;16509;53.862;10.672;2023-01-10T03:47:18;26.65;;;5.68;;
29576;SDS011;16509;53.862;10.672;2023-01-10T03:49:54;24.73;;;6.60;;
29576;SDS011;16509;53.862;10.672;2023-01-10T03:52:22;15.52;;;6.15;;
29576;SDS011;16509;53.862;10.672;2023-01-10T03:54:49;15.20;;;5.90;;
29576;SDS011;16509;53.862;10.672;2023-01-10T03:57:17;18.15;;;6.30;;
29576;SDS011;16509;53.862;10.672;2023-01-10T03:59:45;17.50;;;5.88;;
29576;SDS011;16509;53.862;10.672;2023-01-10T04:02:11;18.05;;;6.63;;
29576;SDS011;16509;53.862;10.672;2023-01-10T04:04:37;18.13;;;6.03;;
29576;SDS011;16509;53.862;10.672;2023-01-10T04:07:03;18.42;;;5.70;;
29576;SDS011;16509;53.862;10.672;2023-01-10T04:09:28;22.08;;;5.95;;
29576;SDS011;16509;53.862;10.672;2023-01-10T04:11:54;14.80;;;6.43;;
29576;SDS011;16509;53.862;10.672;2023-01-10T04:14:19;23.77;;;6.05;;
29576;SDS011;16509;53.862;10.672;2023-01-10T04:16:45;22.48;;;5.03;;
29576;SDS011;16509;53.862;10.672;2023-01-10T04:19:10;17.67;;;5.38;;
29576;SDS011;16509;53.862;10.672;2023-01-10T04:21:36;19.98;;;6.07;;
29576;SDS011;16509;53.862;10.672;2023-01-10T04:24:02;19.20;;;5.68;;
29576;SDS011;16509;53.862;10.672;2023-01-10T04:26:27;17.10;;;5.03;;
29576;SDS011;16509;53.862;10.672;2023-01-10T04:28:53;24.65;;;5.78;;
29576;SDS011;16509;53.862;10.672;2023-01-10T04:31:18;16.42;;;5.38;;
29576;SDS011;16509;53.862;10.672;2023-01-10T04:33:46;19.55;;;5.45;;
29576;SDS011;16509;53.862;10.672;2023-01-10T04:36:11;33.75;;;5.57;;
29576;SDS011;16509;53.862;10.672;2023-01-10T04:38:37;23.77;;;5.90;;
29576;SDS011;16509;53.862;10.672;2023-01-10T04:41:03;15.00;;;4.80;;
29576;SDS011;16509;53.862;10.672;2023-01-10T04:43:28;10.43;;;4.93;;
29576;SDS011;16509;53.862;10.672;2023-01-10T04:45:54;16.80;;;5.47;;
29576;SDS011;16509;53.862;10.672;2023-01-10T04:48:19;16.80;;;4.97;;
29576;SDS011;16509;53.862;10.672;2023-01-10T04:50:49;15.75;;;4.88;;
29576;SDS011;16509;53.862;10.672;2023-01-10T04:53:15;15.88;;;4.57;;
29576;SDS011;16509;53.862;10.672;2023-01-10T04:55:41;18.83;;;5.03;;
29576;SDS011;16509;53.862;10.672;2023-01-10T04:58:06;22.58;;;5.00;;
29576;SDS011;16509;53.862;10.672;2023-01-10T05:00:32;13.05;;;4.93;;
29576;SDS011;16509;53.862;10.672;2023-01-10T05:02:58;16.23;;;4.43;;
29576;SDS011;16509;53.862;10.672;2023-01-10T05:05:23;20.65;;;5.72;;
29576;SDS011;16509;53.862;10.672;2023-01-10T05:07:49;9.77;;;4.75;;
29576;SDS011;16509;53.862;10.672;2023-01-10T05:10:15;17.52;;;5.40;;
29576;SDS011;16509;53.862;10.672;2023-01-10T05:12:41;17.33;;;5.22;;
29576;SDS011;16509;53.862;10.672;2023-01-10T05:15:07;19.60;;;4.97;;
29576;SDS011;16509;53.862;10.672;2023-01-10T05:17:33;18.58;;;5.00;;
29576;SDS011;16509;53.862;10.672;2023-01-10T05:19:58;13.35;;;4.50;;
29576;SDS011;16509;53.862;10.672;2023-01-10T05:22:24;24.30;;;5.72;;
29576;SDS011;16509;53.862;10.672;2023-01-10T05:24:49;20.00;;;4.32;;
29576;SDS011;16509;53.862;10.672;2023-01-10T05:27:15;14.68;;;4.20;;
29576;SDS011;16509;53.862;10.672;2023-01-10T05:29:41;22.58;;;5.15;;
29576;SDS011;16509;53.862;10.672;2023-01-10T05:32:07;20.02;;;5.47;;
29576;SDS011;16509;53.862;10.672;2023-01-10T05:34:32;14.65;;;4.53;;
29576;SDS011;16509;53.862;10.672;2023-01-10T05:36:58;19.05;;;4.28;;
29576;SDS011;16509;53.862;10.672;2023-01-10T05:39:24;15.38;;;5.03;;
29576;SDS011;16509;53.862;10.672;2023-01-10T05:41:49;18.33;;;4.63;;
29576;SDS011;16509;53.862;10.672;2023-01-10T05:44:15;16.13;;;4.05;;
29576;SDS011;16509;53.862;10.672;2023-01-10T05:46:40;19.83;;;4.68;;
29576;SDS011;16509;53.862;10.672;2023-01-10T05:49:06;17.45;;;4.75;;
29576;SDS011;16509;53.862;10.672;2023-01-10T05:51:32;20.85;;;4.45;;
29576;SDS011;16509;53.862;10.672;2023-01-10T05:53:57;25.17;;;4.35;;
29576;SDS011;16509;53.862;10.672;2023-01-10T05:56:23;18.95;;;4.07;;
29576;SDS011;16509;53.862;10.672;2023-01-10T05:58:49;17.13;;;4.55;;
29576;SDS011;16509;53.862;10.672;2023-01-10T06:01:15;19.40;;;4.88;;
29576;SDS011;16509;53.862;10.672;2023-01-10T06:03:41;14.63;;;4.78;;
29576;SDS011;16509;53.862;10.672;2023-01-10T06:06:07;21.67;;;4.00;;
29576;SDS011;16509;53.862;10.672;2023-01-10T06:08:33;18.83;;;4.90;;
29576;SDS011;16509;53.862;10.672;2023-01-10T06:11:01;19.55;;;4.35;;
29576;SDS011;16509;53.862;10.672;2023-01-10T06:13:27;17.85;;;4.68;;
29576;SDS011;16509;53.862;10.672;2023-01-10T06:15:52;18.45;;;4.28;;
29576;SDS011;16509;53.862;10.672;2023-01-10T06:18:18;22.50;;;4.25;;
29576;SDS011;16509;53.862;10.672;2023-01-10T06:20:44;16.27;;;3.28;;
29576;SDS011;16509;53.862;10.672;2023-01-10T06:23:10;28.50;;;4.90;;
29576;SDS011;16509;53.862;10.672;2023-01-10T06:25:36;14.55;;;3.70;;
29576;SDS011;16509;53.862;10.672;2023-01-10T06:28:04;14.98;;;3.75;;
29576;SDS011;16509;53.862;10.672;2023-01-10T06:30:30;8.63;;;3.10;;
29576;SDS011;16509;53.862;10.672;2023-01-10T06:33:00;9.70;;;2.35;;
29576;SDS011;16509;53.862;10.672;2023-01-10T06:35:26;9.35;;;3.92;;
29576;SDS011;16509;53.862;10.672;2023-01-10T06:37:52;10.60;;;3.10;;
29576;SDS011;16509;53.862;10.672;2023-01-10T06:40:18;9.73;;;3.13;;
29576;SDS011;16509;53.862;10.672;2023-01-10T06:42:43;9.07;;;2.60;;
29576;SDS011;16509;53.862;10.672;2023-01-10T06:45:09;11.88;;;4.53;;
29576;SDS011;16509;53.862;10.672;2023-01-10T06:47:35;7.78;;;2.95;;
29576;SDS011;16509;53.862;10.672;2023-01-10T06:50:02;21.90;;;4.38;;
29576;SDS011;16509;53.862;10.672;2023-01-10T06:52:29;10.50;;;2.90;;
29576;SDS011;16509;53.862;10.672;2023-01-10T06:54:54;8.07;;;3.10;;
29576;SDS011;16509;53.862;10.672;2023-01-10T06:57:20;10.25;;;3.08;;
29576;SDS011;16509;53.862;10.672;2023-01-10T06:59:46;13.57;;;3.25;;
29576;SDS011;16509;53.862;10.672;2023-01-10T07:02:11;10.82;;;3.20;;
29576;SDS011;16509;53.862;10.672;2023-01-10T07:04:37;17.52;;;3.80;;
29576;SDS011;16509;53.862;10.672;2023-01-10T07:07:02;9.70;;;3.25;;
29576;SDS011;16509;53.862;10.672;2023-01-10T07:09:28;11.95;;;2.97;;
29576;SDS011;16509;53.862;10.672;2023-01-10T07:11:54;13.18;;;3.95;;
29576;SDS011;16509;53.862;10.672;2023-01-10T07:14:19;26.05;;;4.35;;
29576;SDS011;16509;53.862;10.672;2023-01-10T07:16:45;10.82;;;2.85;;
29576;SDS011;16509;53.862;10.672;2023-01-10T07:19:10;9.73;;;2.88;;
29576;SDS011;16509;53.862;10.672;2023-01-10T07:21:40;17.67;;;3.60;;
29576;SDS011;16509;53.862;10.672;2023-01-10T07:24:05;18.95;;;3.13;;
29576;SDS011;16509;53.862;10.672;2023-01-10T07:26:31;10.90;;;2.75;;
29576;SDS011;16509;53.862;10.672;2023-01-10T07:28:57;16.85;;;4.18;;
29576;SDS011;16509;53.862;10.672;2023-01-10T07:31:23;20.25;;;3.92;;
29576;SDS011;16509;53.862;10.672;2023-01-10T07:33:51;17.42;;;3.08;;
29576;SDS011;16509;53.862;10.672;2023-01-10T07:36:17;21.50;;;2.78;;
29576;SDS011;16509;53.862;10.672;2023-01-10T07:38:43;12.43;;;3.13;;
29576;SDS011;16509;53.862;10.672;2023-01-10T07:41:09;17.33;;;3.17;;
29576;SDS011;16509;53.862;10.672;2023-01-10T07:43:34;15.48;;;3.13;;
29576;SDS011;16509;53.862;10.672;2023-01-10T07:46:01;9.38;;;3.10;;
29576;SDS011;16509;53.862;10.672;2023-01-10T07:48:28;7.85;;;2.83;;
29576;SDS011;16509;53.862;10.672;2023-01-10T07:50:54;15.85;;;4.13;;
29576;SDS011;16509;53.862;10.672;2023-01-10T07:53:21;13.13;;;3.00;;
29576;SDS011;16509;53.862;10.672;2023-01-10T07:55:47;7.78;;;3.20;;
29576;SDS011;16509;53.862;10.672;2023-01-10T07:58:13;17.88;;;2.65;;
29576;SDS011;16509;53.862;10.672;2023-01-10T08:00:38;21.60;;;3.53;;
29576;SDS011;16509;53.862;10.672;2023-01-10T08:03:04;9.85;;;2.90;;
29576;SDS011;16509;53.862;10.672;2023-01-10T08:05:30;16.33;;;2.90;;
29576;SDS011;16509;53.862;10.672;2023-01-10T08:07:56;19.25;;;3.85;;
29576;SDS011;16509;53.862;10.672;2023-01-10T08:10:24;8.50;;;2.95;;
29576;SDS011;16509;53.862;10.672;2023-01-10T08:12:50;12.52;;;4.22;;
29576;SDS011;16509;53.862;10.672;2023-01-10T08:15:16;22.20;;;4.03;;
29576;SDS011;16509;53.862;10.672;2023-01-10T08:17:41;18.02;;;3.97;;
29576;SDS011;16509;53.862;10.672;2023-01-10T08:20:08;10.93;;;3.38;;
29576;SDS011;16509;53.862;10.672;2023-01-10T08:22:34;12.93;;;3.58;;
29576;SDS011;16509;53.862;10.672;2023-01-10T08:25:00;14.60;;;3.63;;
29576;SDS011;16509;53.862;10.672;2023-01-10T08:27:25;14.65;;;3.33;;
29576;SDS011;16509;53.862;10.672;2023-01-10T08:29:51;20.23;;;4.13;;
29576;SDS011;16509;53.862;10.672;2023-01-10T08:32:17;22.83;;;3.28;;
29576;SDS011;16509;53.862;10.672;2023-01-10T08:34:43;14.07;;;3.53;;
29576;SDS011;16509;53.862;10.672;2023-01-10T08:37:12;13.52;;;4.30;;
29576;SDS011;16509;53.862;10.672;2023-01-10T08:39:38;14.40;;;4.03;;
29576;SDS011;16509;53.862;10.672;2023-01-10T08:42:04;21.90;;;4.15;;
29576;SDS011;16509;53.862;10.672;2023-01-10T08:44:29;19.25;;;3.65;;
29576;SDS011;16509;53.862;10.672;2023-01-10T08:46:55;10.63;;;3.33;;
29576;SDS011;16509;53.862;10.672;2023-01-10T08:49:21;20.15;;;4.05;;
29576;SDS011;16509;53.862;10.672;2023-01-10T08:51:47;17.02;;;3.70;;
29576;SDS011;16509;53.862;10.672;2023-01-10T08:54:13;18.63;;;3.90;;
29576;SDS011;16509;53.862;10.672;2023-01-10T08:56:38;19.08;;;4.43;;
29576;SDS011;16509;53.862;10.672;2023-01-10T08:59:05;8.52;;;3.10;;
29576;SDS011;16509;53.862;10.672;2023-01-10T09:01:31;21.45;;;4.32;;
29576;SDS011;16509;53.862;10.672;2023-01-10T09:03:57;16.33;;;3.97;;
29576;SDS011;16509;53.862;10.672;2023-01-10T09:06:22;32.55;;;4.00;;
29576;SDS011;16509;53.862;10.672;2023-01-10T09:08:48;13.20;;;3.35;;
29576;SDS011;16509;53.862;10.672;2023-01-10T09:11:14;18.52;;;3.40;;
29576;SDS011;16509;53.862;10.672;2023-01-10T09:13:40;14.32;;;3.58;;
29576;SDS011;16509;53.862;10.672;2023-01-10T09:16:06;11.65;;;3.25;;
29576;SDS011;16509;53.862;10.672;2023-01-10T09:18:32;37.42;;;3.90;;
29576;SDS011;16509;53.862;10.672;2023-01-10T09:20:58;21.23;;;3.97;;
29576;SDS011;16509;53.862;10.672;2023-01-10T09:23:24;21.23;;;4.60;;
29576;SDS011;16509;53.862;10.672;2023-01-10T09:25:52;33.70;;;4.88;;
29576;SDS011;16509;53.862;10.672;2023-01-10T09:28:20;27.40;;;4.85;;
29576;SDS011;16509;53.862;10.672;2023-01-10T09:30:48;28.25;;;5.10;;
29576;SDS011;16509;53.862;10.672;2023-01-10T09:33:13;12.18;;;4.90;;
29576;SDS011;16509;53.862;10.672;2023-01-10T09:35:40;19.35;;;4.40;;
29576;SDS011;16509;53.862;10.672;2023-01-10T09:38:07;24.13;;;4.90;;
29576;SDS011;16509;53.862;10.672;2023-01-10T09:43:46;18.05;;;4.15;;
29576;SDS011;16509;53.862;10.672;2023-01-10T09:46:42;14.38;;;4.25;;
29576;SDS011;16509;53.862;10.672;2023-01-10T09:51:51;20.73;;;5.05;;
29576;SDS011;16509;53.862;10.672;2023-01-10T09:54:27;12.63;;;4.65;;
29576;SDS011;16509;53.862;10.672;2023-01-10T09:56:55;25.30;;;4.80;;
29576;SDS011;16509;53.862;10.672;2023-01-10T09:59:25;20.95;;;5.30;;
29576;SDS011;16509;53.862;10.672;2023-01-10T10:01:58;26.95;;;5.22;;
29576;SDS011;16509;53.862;10.672;2023-01-10T10:04:41;26.42;;;5.13;;
29576;SDS011;16509;53.862;10.672;2023-01-10T10:07:11;15.60;;;4.95;;
29576;SDS011;16509;53.862;10.672;2023-01-10T10:09:38;14.10;;;4.80;;
29576;SDS011;16509;53.862;10.672;2023-01-10T10:15:02;14.20;;;5.15;;
29576;SDS011;16509;53.862;10.672;2023-01-10T10:20:36;21.83;;;5.60;;
29576;SDS011;16509;53.862;10.672;2023-01-10T10:23:25;15.77;;;5.47;;
29576;SDS011;16509;53.862;10.672;2023-01-10T10:26:21;12.90;;;5.32;;
29576;SDS011;16509;53.862;10.672;2023-01-10T10:29:04;24.88;;;6.88;;
29576;SDS011;16509;53.862;10.672;2023-01-10T10:32:08;16.20;;;4.30;;
29576;SDS011;16509;53.862;10.672;2023-01-10T10:34:56;17.23;;;5.72;;
29576;SDS011;16509;53.862;10.672;2023-01-10T10:37:27;11.95;;;5.22;;
29576;SDS011;16509;53.862;10.672;2023-01-10T10:42:40;29.30;;;6.20;;
29576;SDS011;16509;53.862;10.672;2023-01-10T10:48:23;31.73;;;6.38;;
29576;SDS011;16509;53.862;10.672;2023-01-10T10:51:06;15.60;;;5.60;;
29576;SDS011;16509;53.862;10.672;2023-01-10T10:53:53;25.13;;;6.97;;
29576;SDS011;16509;53.862;10.672;2023-01-10T10:56:21;31.13;;;8.00;;
29576;SDS011;16509;53.862;10.672;2023-01-10T10:58:50;19.20;;;7.13;;
29576;SDS011;16509;53.862;10.672;2023-01-10T11:01:19;17.70;;;6.43;;
29576;SDS011;16509;53.862;10.672;2023-01-10T11:03:54;33.95;;;7.63;;
29576;SDS011;16509;53.862;10.672;2023-01-10T11:06:25;21.80;;;7.40;;
29576;SDS011;16509;53.862;10.672;2023-01-10T11:08:54;20.73;;;7.35;;
29576;SDS011;16509;53.862;10.672;2023-01-10T11:14:01;18.60;;;7.50;;
29576;SDS011;16509;53.862;10.672;2023-01-10T11:16:30;21.45;;;7.80;;
29576;SDS011;16509;53.862;10.672;2023-01-10T11:19:13;28.77;;;7.72;;
29576;SDS011;16509;53.862;10.672;2023-01-10T11:21:42;13.85;;;7.32;;
29576;SDS011;16509;53.862;10.672;2023-01-10T11:24:48;17.52;;;8.35;;
29576;SDS011;16509;53.862;10.672;2023-01-10T11:27:42;21.80;;;7.57;;
29576;SDS011;16509;53.862;10.672;2023-01-10T11:30:21;16.90;;;8.15;;
29576;SDS011;16509;53.862;10.672;2023-01-10T11:32:56;16.27;;;7.85;;
29576;SDS011;16509;53.862;10.672;2023-01-10T11:35:29;13.73;;;7.15;;
29576;SDS011;16509;53.862;10.672;2023-01-10T11:38:39;25.70;;;8.73;;
29576;SDS011;16509;53.862;10.672;2023-01-10T11:43:39;28.50;;;7.60;;
29576;SDS011;16509;53.862;10.672;2023-01-10T11:46:13;23.35;;;7.50;;
29576;SDS011;16509;53.862;10.672;2023-01-10T11:51:27;15.43;;;6.30;;
29576;SDS011;16509;53.862;10.672;2023-01-10T11:54:15;16.50;;;7.18;;
29576;SDS011;16509;53.862;10.672;2023-01-10T11:56:53;31.02;;;7.88;;
29576;SDS011;16509;53.862;10.672;2023-01-10T11:59:25;25.95;;;7.32;;
29576;SDS011;16509;53.862;10.672;2023-01-10T12:01:59;18.58;;;7.80;;
29576;SDS011;16509;53.862;10.672;2023-01-10T12:04:41;17.48;;;6.95;;
29576;SDS011;16509;53.862;10.672;2023-01-10T12:07:10;17.37;;;6.90;;
29576;SDS011;16509;53.862;10.672;2023-01-10T12:09:40;21.23;;;8.00;;
29576;SDS011;16509;53.862;10.672;2023-01-10T12:12:34;18.90;;;7.32;;
29576;SDS011;16509;53.862;10.672;2023-01-10T12:18:00;20.23;;;6.97;;
29576;SDS011;16509;53.862;10.672;2023-01-10T12:20:30;21.58;;;7.53;;
29576;SDS011;16509;53.862;10.672;2023-01-10T12:23:05;22.23;;;6.65;;
29576;SDS011;16509;53.862;10.672;2023-01-10T12:25:36;20.23;;;7.95;;
29576;SDS011;16509;53.862;10.672;2023-01-10T12:28:09;20.98;;;7.68;;
29576;SDS011;16509;53.862;10.672;2023-01-10T12:30:52;15.52;;;7.10;;
29576;SDS011;16509;53.862;10.672;2023-01-10T12:33:22;23.45;;;7.53;;
29576;SDS011;16509;53.862;10.672;2023-01-10T12:38:49;25.42;;;7.82;;
29576;SDS011;16509;53.862;10.672;2023-01-10T12:44:32;20.05;;;6.45;;
29576;SDS011;16509;53.862;10.672;2023-01-10T12:47:23;19.17;;;7.72;;
29576;SDS011;16509;53.862;10.672;2023-01-10T12:50:21;26.00;;;7.70;;
29576;SDS011;16509;53.862;10.672;2023-01-10T12:55:43;16.08;;;7.25;;
29576;SDS011;16509;53.862;10.672;2023-01-10T12:58:20;25.60;;;8.38;;
29576;SDS011;16509;53.862;10.672;2023-01-10T13:00:52;24.75;;;8.15;;
29576;SDS011;16509;53.862;10.672;2023-01-10T13:03:23;23.25;;;7.80;;
29576;SDS011;16509;53.862;10.672;2023-01-10T13:05:53;17.33;;;6.53;;
29576;SDS011;16509;53.862;10.672;2023-01-10T13:08:22;24.92;;;7.57;;
29576;SDS011;16509;53.862;10.672;2023-01-10T13:10:51;17.42;;;7.03;;
29576;SDS011;16509;53.862;10.672;2023-01-10T13:13:32;27.35;;;7.38;;
29576;SDS011;16509;53.862;10.672;2023-01-10T13:16:14;35.10;;;8.00;;
29576;SDS011;16509;53.862;10.672;2023-01-10T13:21:34;22.58;;;7.32;;
29576;SDS011;16509;53.862;10.672;2023-01-10T13:26:55;22.40;;;7.20;;
29576;SDS011;16509;53.862;10.672;2023-01-10T13:32:29;20.85;;;7.22;;
29576;SDS011;16509;53.862;10.672;2023-01-10T13:38:01;20.98;;;8.13;;
29576;SDS011;16509;53.862;10.672;2023-01-10T13:40:27;30.77;;;8.02;;
29576;SDS011;16509;53.862;10.672;2023-01-10T13:51:21;25.83;;;8.38;;
29576;SDS011;16509;53.862;10.672;2023-01-10T14:02:17;23.92;;;6.72;;
29576;SDS011;16509;53.862;10.672;2023-01-10T14:05:02;31.17;;;6.82;;
29576;SDS011;16509;53.862;10.672;2023-01-10T14:15:21;35.92;;;7.40;;
29576;SDS011;16509;53.862;10.672;2023-01-10T14:17:57;23.58;;;8.55;;
29576;SDS011;16509;53.862;10.672;2023-01-10T14:20:35;30.30;;;7.45;;
29576;SDS011;16509;53.862;10.672;2023-01-10T14:23:20;29.38;;;8.48;;
29576;SDS011;16509;53.862;10.672;2023-01-10T14:25:54;32.78;;;7.65;;
29576;SDS011;16509;53.862;10.672;2023-01-10T14:31:12;20.38;;;7.65;;
29576;SDS011;16509;53.862;10.672;2023-01-10T14:33:44;18.15;;;7.55;;
29576;SDS011;16509;53.862;10.672;2023-01-10T14:36:14;26.38;;;8.63;;
29576;SDS011;16509;53.862;10.672;2023-01-10T14:38:53;26.15;;;8.60;;
29576;SDS011;16509;53.862;10.672;2023-01-10T14:41:30;37.95;;;9.00;;
29576;SDS011;16509;53.862;10.672;2023-01-10T14:44:05;25.00;;;8.52;;
29576;SDS011;16509;53.862;10.672;2023-01-10T14:46:47;19.10;;;8.60;;
29576;SDS011;16509;53.862;10.672;2023-01-10T14:51:51;28.90;;;9.27;;
29576;SDS011;16509;53.862;10.672;2023-01-10T14:54:34;33.63;;;8.20;;
29576;SDS011;16509;53.862;10.672;2023-01-10T14:57:03;18.45;;;7.35;;
29576;SDS011;16509;53.862;10.672;2023-01-10T14:59:44;21.58;;;7.25;;
29576;SDS011;16509;53.862;10.672;2023-01-10T15:02:28;26.35;;;7.07;;
29576;SDS011;16509;53.862;10.672;2023-01-10T15:04:55;25.33;;;7.75;;
29576;SDS011;16509;53.862;10.672;2023-01-10T15:07:23;23.42;;;7.53;;
29576;SDS011;16509;53.862;10.672;2023-01-10T15:09:51;25.75;;;7.25;;
29576;SDS011;16509;53.862;10.672;2023-01-10T15:12:21;15.63;;;5.35;;
29576;SDS011;16509;53.862;10.672;2023-01-10T15:15:09;17.38;;;6.00;;
29576;SDS011;16509;53.862;10.672;2023-01-10T15:17:43;16.70;;;6.35;;
29576;SDS011;16509;53.862;10.672;2023-01-10T15:20:14;17.30;;;6.35;;
29576;SDS011;16509;53.862;10.672;2023-01-10T15:23:10;17.40;;;6.43;;
29576;SDS011;16509;53.862;10.672;2023-01-10T15:25:39;12.75;;;6.13;;
29576;SDS011;16509;53.862;10.672;2023-01-10T15:28:15;18.67;;;6.10;;
29576;SDS011;16509;53.862;10.672;2023-01-10T15:30:43;25.77;;;7.38;;
29576;SDS011;16509;53.862;10.672;2023-01-10T15:33:17;21.58;;;6.78;;
29576;SDS011;16509;53.862;10.672;2023-01-10T15:35:48;22.40;;;6.72;;
29576;SDS011;16509;53.862;10.672;2023-01-10T15:38:15;23.17;;;6.35;;
29576;SDS011;16509;53.862;10.672;2023-01-10T15:40:44;16.08;;;6.18;;
29576;SDS011;16509;53.862;10.672;2023-01-10T15:45:42;19.58;;;6.00;;
29576;SDS011;16509;53.862;10.672;2023-01-10T15:48:25;32.85;;;7.45;;
29576;SDS011;16509;53.862;10.672;2023-01-10T15:53:52;15.50;;;5.60;;
29576;SDS011;16509;53.862;10.672;2023-01-10T16:04:58;22.08;;;6.68;;
29576;SDS011;16509;53.862;10.672;2023-01-10T16:07:45;18.13;;;5.57;;
29576;SDS011;16509;53.862;10.672;2023-01-10T16:10:17;19.55;;;6.07;;
29576;SDS011;16509;53.862;10.672;2023-01-10T16:12:44;23.75;;;5.15;;
29576;SDS011;16509;53.862;10.672;2023-01-10T16:15:29;19.90;;;5.07;;
29576;SDS011;16509;53.862;10.672;2023-01-10T16:17:56;18.10;;;5.38;;
29576;SDS011;16509;53.862;10.672;2023-01-10T16:20:56;23.50;;;5.70;;
29576;SDS011;16509;53.862;10.672;2023-01-10T16:25:49;22.73;;;5.47;;
29576;SDS011;16509;53.862;10.672;2023-01-10T16:28:18;16.35;;;5.13;;
29576;SDS011;16509;53.862;10.672;2023-01-10T16:30:45;20.85;;;5.50;;
29576;SDS011;16509;53.862;10.672;2023-01-10T16:33:12;22.83;;;5.82;;
29576;SDS011;16509;53.862;10.672;2023-01-10T16:35:54;19.80;;;5.13;;
29576;SDS011;16509;53.862;10.672;2023-01-10T16:38:22;17.20;;;5.33;;
29576;SDS011;16509;53.862;10.672;2023-01-10T16:40:52;22.10;;;5.93;;
29576;SDS011;16509;53.862;10.672;2023-01-10T16:43:23;16.67;;;7.22;;
29576;SDS011;16509;53.862;10.672;2023-01-10T16:45:54;13.38;;;5.05;;
29576;SDS011;16509;53.862;10.672;2023-01-10T16:48:25;17.65;;;5.68;;
29576;SDS011;16509;53.862;10.672;2023-01-10T16:50:52;20.90;;;6.47;;
29576;SDS011;16509;53.862;10.672;2023-01-10T16:53:18;27.33;;;6.47;;